Brackettville, Texas
Current Conditions -  °F | °C
As of 2:58 PM on Saturday 25 Oct 2014 (Local Time) from KDLF Reporting Station
Clear Clear  
Wind Chill: 85°   Ceiling: Unl
Heat Index: 86°   Visibility: 10mi
Dew Point: 64°   Wind: 13mph
Humidity: 50%   Direction: 150°SSE
Pressure: 30.1"   Gusts: NA
Location:  29.31°N, 100.42°W
Report Text: KDLF 251958Z AUTO 15011KT 10SM CLR 29/18 A3010 RMK AO2 SLP182 T02920177 $
Loading
Personal Weather Stations






























Interactive Weather Map
Tropical Storm Tracking
New forecast layout! Learn more

10-Day Weather Forecast

Advertisements
Track Severe Weather on mobile